Hovedside
METAR-TAF:

METAR-TAF

Lufthavner :

Lifuka, Tonga

breddegrad: 19-46-36S, lengdegrad: 174-20-28W, høyde over havet: 9 m

Gjeldene værobservasjon

Denne rapporten ble laget for 1 time og 6 minutter siden, klokken 02:00 UTC
Vind 4 kt fra Nordvest
Temperatur 28°C
Luftfuktighet 79%
Trykk 1013 hPa
Sikt 10 km eller mer
Få skyer i en høyde av 1800 ft, Tårnskyer (cumulus).

METAR: NFTL 200200Z 31004KT 9999 FEW018TCU 28/24 Q1013

Tid: 16:06 (03:06 UTC)


TAF: fraværende

Værobservasjoner og værvarsel for over 4000 flyplasser (METAR- og TAF-rapporter).

Tilgjengelige stasjoner er representert av de røde og gule prikkene på kartet.

Hold musepekeren over prikken for å se navnet på stasjonen.

Klikk så for å se værobservasjoner og -varsler.

For å forandre kartet kan du klikke på den grønne knappen med svart kryss for å zoome inn, på den grønne knappen med strek for å zoome ut, eller på de grønne pilene for å se tilstøtende kart.


METAR-TAF: